createdAt,value
2019-06-20T00:01:25.697Z,5.00
2019-06-20T00:03:54.199Z,4.87
2019-06-20T00:06:22.820Z,5.10
2019-06-20T00:08:51.385Z,6.67
2019-06-20T00:11:20.009Z,6.13
2019-06-20T00:13:48.654Z,5.60
2019-06-20T00:16:17.275Z,5.77
2019-06-20T00:18:45.849Z,4.80
2019-06-20T00:21:14.449Z,8.47
2019-06-20T00:23:42.999Z,6.37
2019-06-20T00:26:11.569Z,5.00
2019-06-20T00:28:40.052Z,5.10
2019-06-20T00:31:08.621Z,4.87
2019-06-20T00:33:37.114Z,4.90
2019-06-20T00:36:05.678Z,4.73
2019-06-20T00:38:34.233Z,5.00
2019-06-20T00:41:02.812Z,6.53
2019-06-20T00:43:31.365Z,6.47
2019-06-20T00:45:59.949Z,5.17
2019-06-20T00:48:28.557Z,5.27
2019-06-20T00:50:57.089Z,4.97
2019-06-20T00:53:25.658Z,5.00
2019-06-20T00:55:54.297Z,4.93
2019-06-20T00:58:22.848Z,5.83
2019-06-20T01:00:51.603Z,5.10
2019-06-20T01:03:20.156Z,5.33
2019-06-20T01:05:48.751Z,6.57
2019-06-20T01:08:17.386Z,4.70
2019-06-20T01:10:45.953Z,4.63
2019-06-20T01:13:14.506Z,5.30
2019-06-20T01:15:43.412Z,6.37
2019-06-20T01:18:11.900Z,5.10
2019-06-20T01:20:40.544Z,5.33
2019-06-20T01:23:09.099Z,5.13
2019-06-20T01:25:40.753Z,5.60
2019-06-20T01:28:09.735Z,5.63
2019-06-20T01:30:38.454Z,5.83
2019-06-20T01:33:07.263Z,5.27
2019-06-20T01:35:36.498Z,5.83
2019-06-20T01:38:05.243Z,7.97
2019-06-20T01:40:33.844Z,5.13
2019-06-20T01:43:02.402Z,4.57
2019-06-20T01:45:30.963Z,7.03
2019-06-20T01:47:59.437Z,5.30
2019-06-20T01:50:28.012Z,6.03
2019-06-20T01:52:56.567Z,4.87
2019-06-20T01:55:25.070Z,5.73
2019-06-20T01:57:53.553Z,4.77
2019-06-20T02:00:49.254Z,4.87
2019-06-20T02:03:18.450Z,5.10
2019-06-20T02:05:47.179Z,5.00
2019-06-20T02:08:16.089Z,4.57
2019-06-20T02:10:44.579Z,5.27
2019-06-20T02:13:13.143Z,5.50
2019-06-20T02:15:41.744Z,4.47
2019-06-20T02:18:10.308Z,4.87
2019-06-20T02:20:47.462Z,7.00
2019-06-20T02:23:16.104Z,4.57
2019-06-20T02:25:46.233Z,4.97
2019-06-20T02:28:15.429Z,5.80
2019-06-20T02:30:44.128Z,6.30
2019-06-20T02:33:12.763Z,5.43
2019-06-20T02:35:41.453Z,5.17
2019-06-20T02:38:10.184Z,5.50
2019-06-20T02:40:38.939Z,5.10
2019-06-20T02:43:07.573Z,5.07
2019-06-20T02:45:36.361Z,4.93
2019-06-20T02:48:05.859Z,5.17
2019-06-20T02:50:34.895Z,5.30
2019-06-20T02:53:05.198Z,5.43
2019-06-20T02:55:33.883Z,5.10
2019-06-20T02:58:02.450Z,5.40
2019-06-20T03:00:45.916Z,4.90
2019-06-20T03:03:14.481Z,5.57
2019-06-20T03:05:42.949Z,5.60
2019-06-20T03:08:11.876Z,6.93
2019-06-20T03:10:40.440Z,4.90
2019-06-20T03:13:09.647Z,5.07
2019-06-20T03:15:38.347Z,5.83
2019-06-20T03:18:06.912Z,5.80
2019-06-20T03:20:35.473Z,5.27
2019-06-20T03:23:04.479Z,5.20
2019-06-20T03:25:33.054Z,5.70
2019-06-20T03:28:01.766Z,5.60
2019-06-20T03:30:30.322Z,8.07
2019-06-20T03:32:58.888Z,5.23
2019-06-20T03:35:27.446Z,4.90
2019-06-20T03:37:56.013Z,6.23
2019-06-20T03:40:24.570Z,6.90
2019-06-20T03:42:53.203Z,7.30
2019-06-20T03:45:21.749Z,5.50
2019-06-20T03:47:50.240Z,5.40
2019-06-20T03:50:19.161Z,5.60
2019-06-20T03:52:49.369Z,5.57
2019-06-20T03:55:18.116Z,7.20
2019-06-20T03:57:46.615Z,6.67
2019-06-20T04:00:15.417Z,8.10
2019-06-20T04:02:43.962Z,6.30
2019-06-20T04:05:12.674Z,5.23
2019-06-20T04:07:41.235Z,5.80
2019-06-20T04:10:09.974Z,5.90
2019-06-20T04:12:38.528Z,5.80
2019-06-20T04:15:18.497Z,5.77
2019-06-20T04:17:37.663Z,6.73
2019-06-20T04:20:06.877Z,7.27
2019-06-20T04:22:35.434Z,6.90
2019-06-20T04:25:04.183Z,8.60
2019-06-20T04:27:32.737Z,5.73
2019-06-20T04:30:01.234Z,5.40
2019-06-20T04:32:29.785Z,6.03
2019-06-20T04:34:58.364Z,5.87
2019-06-20T04:37:26.918Z,7.07
2019-06-20T04:39:55.493Z,6.37
2019-06-20T04:42:24.053Z,7.63
2019-06-20T04:44:54.265Z,6.10
2019-06-20T04:47:22.876Z,7.47
2019-06-20T04:49:51.452Z,11.00
2019-06-20T04:52:20.011Z,6.37
2019-06-20T04:54:48.587Z,6.50
2019-06-20T04:57:17.137Z,9.37
2019-06-20T04:59:45.716Z,5.77
2019-06-20T05:02:15.913Z,6.47
2019-06-20T05:04:44.413Z,6.27
2019-06-20T05:07:16.157Z,7.67
2019-06-20T05:09:44.734Z,7.27
2019-06-20T05:12:13.321Z,9.20
2019-06-20T05:14:41.882Z,7.60
2019-06-20T05:17:10.499Z,6.53
2019-06-20T05:19:39.103Z,7.73
2019-06-20T05:22:07.653Z,8.20
2019-06-20T05:24:36.220Z,6.20
2019-06-20T05:27:04.789Z,9.03
2019-06-20T05:29:33.365Z,8.37
2019-06-20T05:32:01.998Z,6.50
2019-06-20T05:34:30.605Z,6.40
2019-06-20T05:37:01.138Z,7.47
2019-06-20T05:39:29.366Z,8.20
2019-06-20T05:41:57.963Z,7.37
2019-06-20T05:44:26.596Z,7.33
2019-06-20T05:47:11.391Z,7.30
2019-06-20T05:49:25.391Z,9.60
2019-06-20T05:51:53.924Z,7.30
2019-06-20T05:54:22.405Z,11.63
2019-06-20T05:56:50.920Z,8.20
2019-06-20T05:59:19.470Z,7.53
2019-06-20T06:01:48.039Z,7.17
2019-06-20T06:04:16.589Z,6.97
2019-06-20T06:06:45.162Z,9.53
2019-06-20T06:09:13.753Z,6.73
2019-06-20T06:11:42.313Z,6.97
2019-06-20T06:14:10.870Z,7.97
2019-06-20T06:16:39.461Z,8.93
2019-06-20T06:19:08.022Z,6.60
2019-06-20T06:21:36.680Z,6.27
2019-06-20T06:24:05.430Z,6.37
2019-06-20T06:26:33.981Z,9.47
2019-06-20T06:29:03.422Z,12.60
2019-06-20T06:31:32.003Z,8.37
2019-06-20T06:34:00.557Z,5.70
2019-06-20T06:36:29.137Z,7.30
2019-06-20T06:38:57.695Z,7.97
2019-06-20T06:41:26.267Z,8.20
2019-06-20T06:43:54.878Z,8.77
2019-06-20T06:46:23.457Z,8.10
2019-06-20T06:48:51.953Z,11.60
2019-06-20T06:51:20.590Z,7.50
2019-06-20T06:53:49.153Z,6.87
2019-06-20T06:56:17.662Z,5.60
2019-06-20T06:58:46.207Z,17.30
2019-06-20T07:01:14.779Z,7.20
2019-06-20T07:03:43.414Z,5.90
2019-06-20T07:06:12.060Z,6.17
2019-06-20T07:08:40.621Z,8.33
2019-06-20T07:11:09.156Z,6.83
2019-06-20T07:13:37.838Z,7.93
2019-06-20T07:16:06.604Z,7.33
2019-06-20T07:18:35.121Z,5.20
2019-06-20T07:21:03.698Z,6.80
2019-06-20T07:23:32.269Z,7.40
2019-06-20T07:26:00.831Z,5.97
2019-06-20T07:28:29.414Z,4.70
2019-06-20T07:30:57.966Z,6.93
2019-06-20T07:33:26.546Z,7.93
2019-06-20T07:35:55.123Z,6.97
2019-06-20T07:38:23.694Z,7.17
2019-06-20T07:40:52.275Z,6.20
2019-06-20T07:43:20.920Z,5.43
2019-06-20T07:46:02.140Z,5.73
2019-06-20T07:48:19.701Z,5.30
2019-06-20T07:50:48.255Z,8.97
2019-06-20T07:53:16.829Z,6.07
2019-06-20T07:55:45.390Z,8.37
2019-06-20T07:58:13.988Z,7.87
2019-06-20T08:00:42.719Z,5.20
2019-06-20T08:03:11.354Z,6.77
2019-06-20T08:05:39.894Z,5.47
2019-06-20T08:08:08.477Z,5.93
2019-06-20T08:10:36.955Z,4.43
2019-06-20T08:13:05.556Z,4.17
2019-06-20T08:15:34.174Z,8.10
2019-06-20T08:18:02.877Z,3.63
2019-06-20T08:20:31.502Z,3.30
2019-06-20T08:23:00.098Z,4.43
2019-06-20T08:25:28.812Z,3.97
2019-06-20T08:27:59.099Z,3.40
2019-06-20T08:30:29.849Z,3.80
2019-06-20T08:33:00.173Z,6.30
2019-06-20T08:35:30.925Z,3.77
2019-06-20T08:38:01.204Z,3.67
2019-06-20T08:40:32.980Z,3.27
2019-06-20T08:43:02.101Z,5.00
2019-06-20T08:45:33.315Z,3.00
2019-06-20T08:48:02.585Z,3.47
2019-06-20T08:50:33.123Z,5.83
2019-06-20T08:53:01.910Z,3.40
2019-06-20T08:55:30.769Z,14.00
2019-06-20T08:58:00.145Z,3.33
2019-06-20T09:00:30.516Z,4.00
2019-06-20T09:03:00.436Z,3.27
2019-06-20T09:05:30.828Z,5.07
2019-06-20T09:10:35.706Z,4.50
2019-06-20T09:13:04.909Z,3.83
2019-06-20T09:15:33.540Z,3.40
2019-06-20T09:18:02.924Z,3.70
2019-06-20T09:20:31.697Z,4.90
2019-06-20T09:23:01.065Z,4.10
2019-06-20T09:25:29.981Z,5.30
2019-06-20T09:28:00.321Z,6.07
2019-06-20T09:30:29.465Z,3.80
2019-06-20T09:32:58.101Z,5.37
2019-06-20T09:35:26.811Z,4.27
2019-06-20T09:37:55.429Z,3.67
2019-06-20T09:40:24.077Z,3.70
2019-06-20T09:42:52.949Z,4.93
2019-06-20T09:45:22.167Z,4.33
2019-06-20T09:47:52.104Z,3.67
2019-06-20T09:50:21.473Z,4.60
2019-06-20T09:52:51.373Z,5.03
2019-06-20T09:55:20.456Z,5.23
2019-06-20T09:57:50.345Z,3.60
2019-06-20T10:00:23.074Z,4.43
2019-06-20T10:02:52.444Z,4.10
2019-06-20T10:05:22.028Z,3.60
2019-06-20T10:07:52.181Z,3.77
2019-06-20T10:10:22.806Z,5.60
2019-06-20T10:12:51.805Z,3.77
2019-06-20T10:15:22.944Z,3.80
2019-06-20T10:17:52.247Z,5.20
2019-06-20T10:20:21.862Z,4.07
2019-06-20T10:22:50.937Z,3.60
2019-06-20T10:25:20.568Z,3.27
2019-06-20T10:27:49.749Z,3.50
2019-06-20T10:30:40.482Z,4.00
2019-06-20T10:33:09.695Z,3.97
2019-06-20T10:35:38.247Z,3.10
2019-06-20T10:38:06.898Z,3.00
2019-06-20T10:40:35.615Z,3.33
2019-06-20T10:43:04.523Z,4.37
2019-06-20T10:45:34.281Z,3.93
2019-06-20T10:48:02.874Z,3.10
2019-06-20T10:50:31.571Z,3.10
2019-06-20T10:53:00.137Z,3.57
2019-06-20T10:55:28.712Z,2.60
2019-06-20T10:57:57.270Z,2.63
2019-06-20T11:00:31.401Z,2.90
2019-06-20T11:02:57.069Z,3.30
2019-06-20T11:05:26.215Z,2.67
2019-06-20T11:07:54.838Z,3.23
2019-06-20T11:10:23.945Z,2.83
2019-06-20T11:12:56.022Z,2.42
2019-06-20T11:15:23.398Z,3.33
2019-06-20T11:17:51.951Z,2.60
2019-06-20T11:20:20.800Z,2.45
2019-06-20T11:22:49.383Z,2.80
2019-06-20T11:25:19.568Z,2.50
2019-06-20T11:27:48.245Z,2.22
2019-06-20T11:30:28.051Z,2.52
2019-06-20T11:32:56.621Z,3.90
2019-06-20T11:35:25.181Z,2.30
2019-06-20T11:37:53.678Z,3.65
2019-06-20T11:40:22.667Z,2.60
2019-06-20T11:42:51.242Z,2.50
2019-06-20T11:45:20.135Z,2.20
2019-06-20T11:47:48.689Z,2.30
2019-06-20T11:50:17.905Z,2.50
2019-06-20T11:52:46.485Z,2.40
2019-06-20T11:55:16.189Z,2.42
2019-06-20T11:57:44.971Z,2.75
2019-06-20T12:00:16.470Z,2.65
2019-06-20T12:02:46.116Z,2.70
2019-06-20T12:05:15.522Z,2.60
2019-06-20T12:07:45.589Z,2.47
2019-06-20T12:10:15.462Z,2.83
2019-06-20T12:12:46.949Z,2.73
2019-06-20T12:15:16.219Z,2.77
2019-06-20T12:17:45.326Z,2.80
2019-06-20T12:20:18.259Z,5.07
2019-06-20T12:22:46.803Z,4.27
2019-06-20T12:25:15.888Z,3.53
2019-06-20T12:27:45.416Z,3.20
2019-06-20T12:30:17.236Z,3.60
2019-06-20T12:32:46.851Z,2.67
2019-06-20T12:35:15.858Z,2.57
2019-06-20T12:37:45.198Z,3.03
2019-06-20T12:40:14.830Z,2.87
2019-06-20T12:42:44.766Z,3.40
2019-06-20T12:45:15.633Z,3.77
2019-06-20T12:47:45.928Z,3.63
2019-06-20T12:50:15.221Z,3.33
2019-06-20T12:52:45.450Z,3.07
2019-06-20T12:55:14.812Z,2.97
2019-06-20T12:57:44.173Z,2.60
2019-06-20T13:00:14.295Z,3.03
2019-06-20T13:02:43.738Z,3.57
2019-06-20T13:05:13.489Z,2.90
2019-06-20T13:07:42.437Z,2.43
2019-06-20T13:10:13.217Z,3.93
2019-06-20T13:12:42.770Z,2.97
2019-06-20T13:15:12.935Z,3.80
2019-06-20T13:17:43.118Z,3.07
2019-06-20T13:20:12.334Z,6.90
2019-06-20T13:22:41.405Z,2.20
2019-06-20T13:25:12.584Z,2.43
2019-06-20T13:27:41.147Z,2.73
2019-06-20T13:30:10.738Z,3.90
2019-06-20T13:32:40.238Z,3.63
2019-06-20T13:35:10.215Z,2.20
2019-06-20T13:37:40.227Z,3.50
2019-06-20T13:40:11.031Z,2.33
2019-06-20T13:42:42.003Z,2.57
2019-06-20T13:45:26.789Z,2.50
2019-06-20T13:47:55.422Z,2.43
2019-06-20T13:50:25.723Z,3.27
2019-06-20T13:52:54.655Z,4.30
2019-06-20T13:55:23.323Z,3.17
2019-06-20T13:57:51.938Z,3.77
2019-06-20T14:00:23.523Z,3.67
2019-06-20T14:02:52.248Z,3.00
2019-06-20T14:05:20.993Z,3.10
2019-06-20T14:07:51.822Z,2.90
2019-06-20T14:10:20.643Z,2.63
2019-06-20T14:12:49.238Z,3.07
2019-06-20T14:15:18.515Z,4.40
2019-06-20T14:17:47.576Z,2.80
2019-06-20T14:20:17.058Z,3.20
2019-06-20T14:22:45.671Z,2.97
2019-06-20T14:25:14.490Z,4.97
2019-06-20T14:27:43.945Z,2.73
2019-06-20T14:30:13.663Z,3.60
2019-06-20T14:32:43.256Z,3.37
2019-06-20T14:35:13.445Z,5.23
2019-06-20T14:37:45.310Z,2.70
2019-06-20T14:40:12.860Z,2.73
2019-06-20T14:42:42.966Z,2.10
2019-06-20T14:45:12.221Z,2.20
2019-06-20T14:47:40.781Z,2.20
2019-06-20T14:50:10.893Z,2.23
2019-06-20T14:52:39.541Z,2.97
2019-06-20T14:55:09.344Z,3.10
2019-06-20T14:57:37.945Z,2.50
2019-06-20T15:00:10.739Z,3.20
2019-06-20T15:02:39.482Z,2.63
2019-06-20T15:05:15.978Z,2.63
2019-06-20T15:07:46.725Z,2.43
2019-06-20T15:10:16.194Z,3.57
2019-06-20T15:12:46.412Z,2.33
2019-06-20T15:15:16.685Z,2.40
2019-06-20T15:17:46.932Z,3.83
2019-06-20T15:20:15.965Z,2.30
2019-06-20T15:22:46.767Z,3.03
2019-06-20T15:25:14.814Z,3.10
2019-06-20T15:27:43.490Z,4.47
2019-06-20T15:30:12.808Z,2.63
2019-06-20T15:32:55.670Z,2.50
2019-06-20T15:35:12.148Z,3.67
2019-06-20T15:37:40.728Z,3.60
2019-06-20T15:40:09.826Z,3.53
2019-06-20T15:42:38.375Z,2.87
2019-06-20T15:45:08.989Z,2.40
2019-06-20T15:47:38.224Z,2.30
2019-06-20T15:50:10.247Z,2.97
2019-06-20T15:52:38.797Z,3.00
2019-06-20T15:55:08.031Z,2.57
2019-06-20T15:57:36.605Z,2.60
2019-06-20T16:00:08.884Z,2.57
2019-06-20T16:02:37.598Z,2.60
2019-06-20T16:05:07.887Z,2.50
2019-06-20T16:07:36.890Z,2.53
2019-06-20T16:10:09.540Z,3.30
2019-06-20T16:12:38.351Z,3.27
2019-06-20T16:15:11.244Z,2.40
2019-06-20T16:17:39.760Z,2.70
2019-06-20T16:20:10.180Z,3.30
2019-06-20T16:22:38.725Z,3.80
2019-06-20T16:25:07.730Z,2.80
2019-06-20T16:27:36.567Z,2.70
2019-06-20T16:30:10.155Z,3.70
2019-06-20T16:32:38.947Z,2.80
2019-06-20T16:35:08.344Z,3.93
2019-06-20T16:37:37.010Z,4.67
2019-06-20T16:40:07.290Z,3.13
2019-06-20T16:42:35.943Z,2.63
2019-06-20T16:45:06.544Z,3.10
2019-06-20T16:47:35.454Z,3.67
2019-06-20T16:50:08.347Z,4.63
2019-06-20T16:52:36.966Z,4.07
2019-06-20T16:55:08.732Z,3.07
2019-06-20T16:57:37.349Z,3.00
2019-06-20T17:00:08.219Z,4.23
2019-06-20T17:02:36.864Z,3.47
2019-06-20T17:05:07.388Z,3.10
2019-06-20T17:07:35.957Z,2.90
2019-06-20T17:10:07.160Z,3.17
2019-06-20T17:12:35.792Z,3.10
2019-06-20T17:15:05.825Z,3.03
2019-06-20T17:17:34.570Z,3.27
2019-06-20T17:20:04.127Z,3.37
2019-06-20T17:22:32.763Z,3.07
2019-06-20T17:25:01.375Z,2.63
2019-06-20T17:27:29.951Z,2.87
2019-06-20T17:29:58.515Z,4.57
2019-06-20T17:32:27.071Z,4.43
2019-06-20T17:34:55.583Z,12.13
2019-06-20T17:37:24.211Z,7.63
2019-06-20T17:39:52.777Z,5.20
2019-06-20T17:42:21.875Z,3.97
2019-06-20T17:44:50.448Z,2.90
2019-06-20T17:47:19.008Z,3.07
2019-06-20T17:49:47.651Z,2.80
2019-06-20T17:52:16.313Z,4.80
2019-06-20T17:54:44.878Z,3.37
2019-06-20T17:57:13.522Z,3.03
2019-06-20T17:59:42.171Z,3.10
2019-06-20T18:02:10.785Z,3.37
2019-06-20T18:04:39.343Z,3.20
2019-06-20T18:07:07.986Z,3.30
2019-06-20T18:09:36.597Z,3.47
2019-06-20T18:12:05.276Z,3.00
2019-06-20T18:14:34.283Z,3.20
2019-06-20T18:17:02.857Z,3.57
2019-06-20T18:19:31.439Z,3.53
2019-06-20T18:22:00.000Z,3.40
2019-06-20T18:24:28.591Z,3.50
2019-06-20T18:26:57.126Z,3.57
2019-06-20T18:29:25.709Z,3.60
2019-06-20T18:31:54.533Z,5.00
2019-06-20T18:34:29.989Z,6.47
2019-06-20T18:36:53.271Z,3.70
2019-06-20T18:39:21.829Z,3.50
2019-06-20T18:41:50.399Z,4.60
2019-06-20T18:44:18.966Z,4.83
2019-06-20T18:46:47.562Z,3.40
2019-06-20T18:49:16.300Z,3.20
2019-06-20T18:51:44.956Z,3.60
2019-06-20T18:54:13.522Z,4.80
2019-06-20T18:56:42.105Z,4.03
2019-06-20T18:59:10.611Z,4.23
2019-06-20T19:01:39.188Z,3.93
2019-06-20T19:04:09.858Z,4.00
2019-06-20T19:06:38.176Z,4.43
2019-06-20T19:09:09.077Z,3.60
2019-06-20T19:11:37.962Z,3.53
2019-06-20T19:14:06.840Z,3.60
2019-06-20T19:16:35.408Z,3.70
2019-06-20T19:19:04.158Z,3.90
2019-06-20T19:21:32.770Z,4.00
2019-06-20T19:24:01.388Z,3.40
2019-06-20T19:26:29.970Z,3.30
2019-06-20T19:28:58.656Z,3.70
2019-06-20T19:31:27.199Z,3.83
2019-06-20T19:33:55.855Z,3.30
2019-06-20T19:36:24.463Z,3.30
2019-06-20T19:38:53.036Z,3.53
2019-06-20T19:41:21.699Z,3.40
2019-06-20T19:43:50.253Z,4.17
2019-06-20T19:46:18.827Z,3.27
2019-06-20T19:48:48.274Z,3.17
2019-06-20T19:51:16.941Z,4.17
2019-06-20T19:53:46.071Z,3.43
2019-06-20T19:56:14.815Z,2.80
2019-06-20T19:58:43.460Z,3.33
2019-06-20T20:01:12.158Z,3.30
2019-06-20T20:03:40.900Z,6.00
2019-06-20T20:06:09.564Z,3.57
2019-06-20T20:08:38.262Z,3.43
2019-06-20T20:11:06.862Z,3.40
2019-06-20T20:13:36.122Z,4.67
2019-06-20T20:16:05.409Z,3.60
2019-06-20T20:18:33.986Z,3.40
2019-06-20T20:21:02.713Z,4.07
2019-06-20T20:23:31.263Z,3.80
2019-06-20T20:25:59.894Z,3.73
2019-06-20T20:28:28.465Z,4.07
2019-06-20T20:30:57.082Z,3.83
2019-06-20T20:33:25.615Z,6.47
2019-06-20T20:35:54.237Z,9.27
2019-06-20T20:38:22.748Z,12.33
2019-06-20T20:40:51.377Z,8.60
2019-06-20T20:43:20.990Z,7.20
2019-06-20T20:45:49.510Z,10.33
2019-06-20T20:48:18.583Z,10.60
2019-06-20T20:50:47.167Z,9.47
2019-06-20T20:53:15.712Z,9.90
2019-06-20T20:55:44.293Z,9.80
2019-06-20T20:58:12.900Z,10.77
2019-06-20T21:01:05.670Z,8.20
2019-06-20T21:03:34.226Z,9.70
2019-06-20T21:06:02.793Z,11.80
2019-06-20T21:08:32.901Z,15.40
2019-06-20T21:11:01.596Z,8.33
2019-06-20T21:13:30.460Z,5.93
2019-06-20T21:15:58.995Z,5.97
2019-06-20T21:18:29.087Z,5.60
2019-06-20T21:20:57.631Z,3.53
2019-06-20T21:23:26.127Z,5.00
2019-06-20T21:25:54.681Z,5.40
2019-06-20T21:28:23.184Z,6.93
2019-06-20T21:30:51.738Z,5.90
2019-06-20T21:33:20.245Z,6.33
2019-06-20T21:35:48.734Z,6.13
2019-06-20T21:38:17.320Z,6.27
2019-06-20T21:40:45.873Z,4.27
2019-06-20T21:43:14.519Z,4.20
2019-06-20T21:45:43.149Z,4.90
2019-06-20T21:48:11.776Z,5.20
2019-06-20T21:50:40.443Z,5.60
2019-06-20T21:53:08.991Z,4.00
2019-06-20T21:55:37.477Z,4.27
2019-06-20T21:58:06.124Z,6.93
2019-06-20T22:00:39.235Z,6.17
2019-06-20T22:03:08.143Z,11.20
2019-06-20T22:05:36.844Z,6.87
2019-06-20T22:08:05.807Z,8.43
2019-06-20T22:10:34.285Z,6.37
2019-06-20T22:13:02.853Z,6.73
2019-06-20T22:15:31.478Z,7.37
2019-06-20T22:18:00.593Z,6.67
2019-06-20T22:20:29.514Z,5.47
2019-06-20T22:22:58.063Z,5.70
2019-06-20T22:25:27.626Z,5.53
2019-06-20T22:27:56.236Z,4.60
2019-06-20T22:30:33.564Z,5.40
2019-06-20T22:33:02.129Z,5.17
2019-06-20T22:35:30.634Z,5.67
2019-06-20T22:37:59.215Z,5.90
2019-06-20T22:40:27.757Z,4.40
2019-06-20T22:42:56.318Z,6.33
2019-06-20T22:45:24.959Z,4.50
2019-06-20T22:47:53.589Z,4.77
2019-06-20T22:50:22.158Z,4.37
2019-06-20T22:52:50.882Z,3.03
2019-06-20T22:55:19.594Z,2.87
2019-06-20T22:57:48.308Z,3.50
2019-06-20T23:00:17.614Z,3.40
2019-06-20T23:02:46.170Z,3.70
2019-06-20T23:05:14.950Z,4.80
2019-06-20T23:07:43.509Z,4.00
2019-06-20T23:10:13.352Z,4.03
2019-06-20T23:12:41.914Z,3.50
2019-06-20T23:15:10.659Z,3.87
2019-06-20T23:17:39.202Z,4.20
2019-06-20T23:20:08.397Z,4.10
2019-06-20T23:22:37.141Z,5.60
2019-06-20T23:25:07.837Z,3.43
2019-06-20T23:27:36.673Z,3.47
2019-06-20T23:30:13.147Z,3.53
2019-06-20T23:32:41.718Z,3.53
2019-06-20T23:35:10.822Z,4.23
2019-06-20T23:37:39.443Z,3.80
2019-06-20T23:40:09.658Z,3.50
2019-06-20T23:42:38.339Z,4.47
2019-06-20T23:45:08.425Z,4.93
2019-06-20T23:47:37.068Z,3.83
2019-06-20T23:50:07.267Z,4.43
2019-06-20T23:52:37.469Z,4.10
2019-06-20T23:55:07.379Z,5.30
2019-06-20T23:57:35.965Z,3.70
